Time;durP1;ratioP1;P1;durP2;ratioP2;P2;SDS_P1;SDS_P2;PMS_P1;PMS_P2;Temp;Humidity;BMP_temperature;BMP_pressure;BME280_temperature;BME280_humidity;BME280_pressure;Samples;Min_cycle;Max_cycle;Signal;HPM_P1;HPM_P2
2023/08/12 00:00:20;;;;;;;19.35;11.60;;;;;;;17.85;57.01;101708.94;4986389;28;20048;-76
2023/08/12 00:02:46;;;;;;;25.45;12.52;;;;;;;17.87;57.06;101712.31;4995198;28;20793;-78
2023/08/12 00:05:12;;;;;;;25.27;14.25;;;;;;;17.86;56.77;101697.41;5001569;28;20068;-76
2023/08/12 00:07:42;;;;;;;23.60;13.25;;;;;;;17.92;56.82;101699.69;4983203;28;20639;-77
2023/08/12 00:10:10;;;;;;;29.40;15.52;;;;;;;18.00;56.50;101701.88;4963226;28;20496;-76
2023/08/12 00:12:35;;;;;;;23.48;14.30;;;;;;;17.94;56.73;101697.81;4996315;28;20054;-77
2023/08/12 00:15:02;;;;;;;20.02;13.15;;;;;;;17.95;57.14;101690.72;4981611;28;20373;-75
2023/08/12 00:17:28;;;;;;;26.10;12.57;;;;;;;18.00;56.92;101686.84;4980395;28;20042;-75
2023/08/12 00:19:54;;;;;;;25.88;13.52;;;;;;;17.94;57.20;101687.25;4979778;28;20037;-75
2023/08/12 00:22:20;;;;;;;27.25;13.15;;;;;;;17.92;57.12;101683.00;4982068;28;20060;-77
2023/08/12 00:24:45;;;;;;;18.63;10.55;;;;;;;17.98;56.89;101683.47;4996281;28;20041;-76
2023/08/12 00:27:11;;;;;;;18.25;10.45;;;;;;;18.04;57.03;101688.38;4983546;28;20061;-78
2023/08/12 00:29:36;;;;;;;21.15;12.25;;;;;;;18.07;56.52;101697.94;4977787;28;20045;-77
2023/08/12 00:32:02;;;;;;;23.85;12.77;;;;;;;18.01;56.80;101699.16;4994679;28;20634;-77
2023/08/12 00:34:28;;;;;;;30.88;15.63;;;;;;;17.98;56.85;101709.06;4973326;28;20511;-78
2023/08/12 00:36:53;;;;;;;24.52;14.77;;;;;;;17.96;56.90;101722.38;4976981;28;20038;-76
2023/08/12 00:39:22;;;;;;;23.45;13.70;;;;;;;18.04;56.89;101720.13;4984445;28;20030;-77
2023/08/12 00:41:48;;;;;;;24.63;14.05;;;;;;;17.92;57.24;101726.16;4993653;28;20128;-78
2023/08/12 00:44:14;;;;;;;23.70;13.20;;;;;;;17.83;56.99;101721.38;4980999;28;20125;-77
2023/08/12 00:46:41;;;;;;;23.02;13.98;;;;;;;17.70;57.38;101721.22;4993880;28;20030;-78
2023/08/12 00:49:07;;;;;;;29.13;16.10;;;;;;;17.53;57.78;101718.69;4983441;28;20081;-77
2023/08/12 00:51:32;;;;;;;28.27;15.65;;;;;;;17.48;58.20;101721.59;4983706;28;20680;-77
2023/08/12 00:53:59;;;;;;;26.15;14.38;;;;;;;17.46;58.15;101712.84;4980843;28;20114;-77
2023/08/12 00:56:26;;;;;;;27.30;14.82;;;;;;;17.45;58.44;101711.16;4984293;28;20030;-75
2023/08/12 00:58:52;;;;;;;28.92;16.30;;;;;;;17.44;58.36;101709.44;4965026;28;20551;-77
2023/08/12 01:01:19;;;;;;;18.90;13.15;;;;;;;17.48;58.10;101708.38;4983060;28;20033;-76
2023/08/12 01:03:45;;;;;;;24.40;16.08;;;;;;;17.36;58.52;101701.13;4996645;28;20041;-77
2023/08/12 01:06:12;;;;;;;28.48;15.48;;;;;;;17.29;58.54;101700.59;4979890;28;20180;-75
2023/08/12 01:08:38;;;;;;;24.20;13.32;;;;;;;17.38;58.46;101709.78;4978176;28;20033;-76
2023/08/12 01:11:20;;;;;;;28.00;15.02;;;;;;;17.53;58.14;101708.97;4984357;28;20037;-78
2023/08/12 01:13:46;;;;;;;27.65;15.85;;;;;;;17.41;58.11;101707.00;4997613;28;21049;-78
2023/08/12 01:16:17;;;;;;;21.02;13.88;;;;;;;17.50;58.21;101709.13;4993842;28;20097;-78
2023/08/12 01:18:43;;;;;;;25.17;14.40;;;;;;;17.59;58.16;101705.97;4977089;28;20088;-76
2023/08/12 01:21:16;;;;;;;27.42;13.70;;;;;;;17.64;58.06;101719.78;4966371;28;21379;-76
2023/08/12 01:23:44;;;;;;;23.80;13.65;;;;;;;17.53;57.57;101708.97;4955423;28;20649;-77
2023/08/12 01:26:09;;;;;;;28.73;16.55;;;;;;;17.34;58.18;101705.63;4980450;28;20112;-77
2023/08/12 01:28:35;;;;;;;24.33;15.45;;;;;;;17.38;58.29;101705.38;4995685;28;20548;-75
2023/08/12 01:31:19;;;;;;;21.33;12.45;;;;;;;17.44;58.46;101699.72;4995676;28;20143;-78
2023/08/12 01:33:51;;;;;;;20.58;13.98;;;;;;;17.44;58.34;101707.66;4978070;28;20458;-77
2023/08/12 01:36:19;;;;;;;24.20;13.75;;;;;;;17.45;58.01;101697.94;4975906;28;20026;-77
2023/08/12 01:38:46;;;;;;;22.23;12.38;;;;;;;17.35;58.02;101694.09;4965494;28;20034;-79
2023/08/12 01:41:13;;;;;;;22.90;12.77;;;;;;;17.22;58.22;101688.66;4979652;28;20041;-77
2023/08/12 01:43:41;;;;;;;24.63;12.50;;;;;;;17.21;58.48;101687.81;4963122;28;20179;-77
2023/08/12 01:46:06;;;;;;;22.10;11.30;;;;;;;17.16;58.73;101686.38;4980219;28;20029;-77
2023/08/12 01:48:32;;;;;;;16.70;10.98;;;;;;;17.14;58.64;101686.44;4982411;28;20044;-77
2023/08/12 01:50:57;;;;;;;21.60;11.85;;;;;;;17.17;58.87;101696.81;4983458;28;20083;-78
2023/08/12 01:53:23;;;;;;;15.07;10.15;;;;;;;17.27;58.58;101696.31;4964998;28;20033;-76
2023/08/12 01:55:52;;;;;;;20.45;10.82;;;;;;;17.34;58.91;101692.41;4978541;28;20464;-77
2023/08/12 01:58:18;;;;;;;21.58;10.93;;;;;;;17.38;58.60;101684.22;4959367;28;20676;-77
2023/08/12 02:00:43;;;;;;;15.95;10.25;;;;;;;17.39;58.43;101679.78;4979649;28;20030;-77
2023/08/12 02:03:09;;;;;;;22.50;10.95;;;;;;;17.47;58.49;101674.94;4962146;28;20053;-76
2023/08/12 02:05:36;;;;;;;21.25;11.85;;;;;;;17.43;58.46;101681.34;4977948;28;20119;-75
2023/08/12 02:08:04;;;;;;;20.95;12.50;;;;;;;17.32;58.41;101676.66;4983308;28;20073;-80
2023/08/12 02:10:30;;;;;;;18.58;11.35;;;;;;;17.32;58.36;101674.00;4995151;28;20034;-78
2023/08/12 02:12:55;;;;;;;17.20;10.77;;;;;;;17.27;58.75;101673.41;4993121;28;20042;-79
2023/08/12 02:15:21;;;;;;;24.88;12.48;;;;;;;17.27;58.33;101664.63;4993301;28;20057;-76
2023/08/12 02:17:46;;;;;;;19.27;12.25;;;;;;;17.21;58.62;101668.47;4994511;28;20121;-76
2023/08/12 02:20:12;;;;;;;23.85;12.40;;;;;;;17.21;58.88;101666.66;4993431;28;20037;-76
2023/08/12 02:22:37;;;;;;;27.95;13.93;;;;;;;17.22;58.61;101663.09;4955080;28;20049;-76
2023/08/12 02:25:03;;;;;;;19.02;12.27;;;;;;;17.20;58.90;101659.69;4981393;28;20666;-76
2023/08/12 02:27:29;;;;;;;20.88;11.05;;;;;;;17.24;58.61;101655.91;4934592;28;20153;-76
2023/08/12 02:29:54;;;;;;;21.42;13.15;;;;;;;17.26;58.77;101647.91;4972310;28;20033;-76
2023/08/12 02:32:20;;;;;;;20.10;12.07;;;;;;;17.25;58.66;101646.22;4974596;28;20042;-75
2023/08/12 02:34:45;;;;;;;21.45;11.93;;;;;;;17.28;58.38;101650.47;4980539;28;20129;-76
2023/08/12 02:37:12;;;;;;;16.65;10.52;;;;;;;17.33;58.54;101646.63;4978940;28;20049;-78
2023/08/12 02:39:38;;;;;;;22.13;12.50;;;;;;;17.37;58.38;101642.03;4980958;28;20033;-76
2023/08/12 02:42:03;;;;;;;25.17;11.63;;;;;;;17.41;58.10;101648.84;4979571;28;20041;-76
2023/08/12 02:44:29;;;;;;;24.35;12.27;;;;;;;17.34;58.14;101640.41;4992516;28;20026;-76
2023/08/12 02:46:54;;;;;;;19.50;11.52;;;;;;;17.31;58.46;101629.16;4975430;28;20607;-78
2023/08/12 02:49:20;;;;;;;21.88;12.45;;;;;;;17.33;58.23;101627.28;4975281;28;20025;-77
2023/08/12 02:51:46;;;;;;;23.38;13.80;;;;;;;17.21;58.26;101624.41;4992881;28;20064;-78
2023/08/12 02:54:11;;;;;;;22.63;12.73;;;;;;;17.19;58.39;101614.88;4981578;28;20558;-77
2023/08/12 02:56:36;;;;;;;20.77;13.60;;;;;;;17.14;58.62;101622.22;4980549;28;20036;-75
2023/08/12 02:59:02;;;;;;;17.80;11.57;;;;;;;17.14;58.61;101623.06;4959056;28;20042;-75
2023/08/12 03:01:28;;;;;;;21.27;11.75;;;;;;;17.17;58.67;101617.59;4994748;28;20038;-76
2023/08/12 03:03:53;;;;;;;22.85;13.68;;;;;;;17.11;58.33;101617.91;4977353;28;20529;-76
2023/08/12 03:06:19;;;;;;;19.42;11.80;;;;;;;17.06;58.87;101609.41;4991837;28;20955;-77
2023/08/12 03:08:45;;;;;;;21.60;13.57;;;;;;;17.00;58.45;101604.47;4979359;28;20038;-78
2023/08/12 03:11:10;;;;;;;18.13;10.65;;;;;;;17.03;58.67;101609.59;4980497;28;20030;-74
2023/08/12 03:13:36;;;;;;;18.27;11.20;;;;;;;16.99;58.54;101611.53;4973651;28;20128;-75
2023/08/12 03:16:02;;;;;;;18.60;11.05;;;;;;;17.05;58.27;101618.28;4962263;28;20659;-76
2023/08/12 03:18:28;;;;;;;20.45;12.57;;;;;;;17.02;58.39;101623.72;4978503;28;20277;-75
2023/08/12 03:20:54;;;;;;;18.48;11.38;;;;;;;16.86;58.51;101607.03;4974486;28;20034;-75
2023/08/12 03:23:23;;;;;;;23.92;13.93;;;;;;;16.77;58.74;101614.50;4978608;28;20134;-78
2023/08/12 03:25:48;;;;;;;18.38;11.77;;;;;;;16.85;58.74;101611.47;4979187;28;20434;-77
2023/08/12 03:28:16;;;;;;;14.75;9.20;;;;;;;16.88;58.18;101618.38;4980023;28;20815;-77
2023/08/12 03:30:42;;;;;;;14.52;10.30;;;;;;;16.79;58.24;101614.44;4985992;28;20388;-77
2023/08/12 03:33:07;;;;;;;13.05;9.27;;;;;;;16.83;58.44;101614.19;5000801;28;20045;-77
2023/08/12 03:35:33;;;;;;;14.82;9.73;;;;;;;16.82;58.29;101612.50;4984597;28;20065;-75
2023/08/12 03:37:59;;;;;;;17.27;11.70;;;;;;;16.72;58.51;101603.31;4986332;28;20070;-76
2023/08/12 03:40:24;;;;;;;17.13;11.20;;;;;;;16.66;58.42;101606.28;4986375;28;20079;-76
2023/08/12 03:42:50;;;;;;;23.13;12.60;;;;;;;16.61;59.00;101614.47;4978501;28;20041;-76
2023/08/12 03:45:20;;;;;;;20.30;13.60;;;;;;;16.60;59.00;101606.66;4983431;28;20029;-75
2023/08/12 03:47:46;;;;;;;22.02;11.85;;;;;;;16.67;58.99;101601.91;4986511;28;20415;-77
2023/08/12 03:50:11;;;;;;;21.25;13.25;;;;;;;16.62;58.72;101599.47;4998674;28;20041;-78
2023/08/12 03:52:37;;;;;;;23.77;13.73;;;;;;;16.63;58.88;101598.56;4979973;28;20037;-75
2023/08/12 03:55:03;;;;;;;21.08;13.02;;;;;;;16.58;58.98;101592.69;4987346;28;20041;-75
2023/08/12 03:57:29;;;;;;;26.33;12.77;;;;;;;16.67;58.85;101594.81;4977626;28;20033;-76
2023/08/12 03:59:55;;;;;;;18.48;11.23;;;;;;;16.70;58.93;101586.72;4982913;28;20083;-77
2023/08/12 04:02:20;;;;;;;24.75;14.23;;;;;;;16.59;59.09;101591.72;4965772;28;20045;-76
2023/08/12 04:04:46;;;;;;;19.92;12.85;;;;;;;16.56;59.00;101589.28;4983708;28;20037;-77
2023/08/12 04:07:11;;;;;;;25.27;14.20;;;;;;;16.51;59.34;101583.38;4996298;28;20057;-77
2023/08/12 04:09:37;;;;;;;23.10;12.43;;;;;;;16.54;59.30;101588.50;4995136;28;20041;-76
2023/08/12 04:12:02;;;;;;;27.52;15.23;;;;;;;16.53;59.26;101582.38;4973673;28;20033;-77
2023/08/12 04:14:28;;;;;;;25.33;15.05;;;;;;;16.51;59.61;101576.34;4994894;28;20048;-76
2023/08/12 04:16:55;;;;;;;22.92;14.70;;;;;;;16.55;59.31;101582.28;4982486;28;20034;-76
2023/08/12 04:19:21;;;;;;;17.00;11.77;;;;;;;16.63;59.56;101580.09;4963492;28;20037;-78
2023/08/12 04:21:46;;;;;;;19.30;13.65;;;;;;;16.67;59.36;101578.97;4985323;28;20049;-77
2023/08/12 04:24:12;;;;;;;22.63;13.82;;;;;;;16.71;59.23;101569.97;4967626;28;20026;-78
2023/08/12 04:26:39;;;;;;;18.58;14.07;;;;;;;16.69;59.49;101563.91;4963943;28;20034;-77
2023/08/12 04:29:05;;;;;;;24.60;14.55;;;;;;;16.69;59.22;101569.19;4982657;28;20519;-77
2023/08/12 04:31:31;;;;;;;23.80;13.55;;;;;;;16.65;59.64;101572.94;4975576;28;20518;-78
2023/08/12 04:33:57;;;;;;;18.05;12.45;;;;;;;16.73;59.38;101578.66;4978286;28;20037;-78
2023/08/12 04:36:25;;;;;;;22.70;12.30;;;;;;;16.80;59.17;101565.97;4996908;28;20153;-77
2023/08/12 04:38:51;;;;;;;24.70;14.68;;;;;;;16.80;59.30;101566.84;4984418;28;20465;-77
2023/08/12 04:41:19;;;;;;;19.25;11.73;;;;;;;16.87;59.33;101562.06;4976971;28;20025;-78
2023/08/12 04:43:44;;;;;;;19.30;12.32;;;;;;;16.96;59.46;101566.00;4984128;28;20049;-77
2023/08/12 04:46:11;;;;;;;19.27;11.80;;;;;;;17.01;58.88;101564.78;4983146;28;20030;-77
2023/08/12 04:48:37;;;;;;;17.80;11.45;;;;;;;17.06;58.66;101564.53;4980447;28;20033;-77
2023/08/12 04:51:03;;;;;;;17.48;11.60;;;;;;;17.03;58.97;101556.78;4983174;28;20047;-78
2023/08/12 04:53:29;;;;;;;20.00;13.50;;;;;;;17.05;58.82;101560.19;4979171;28;20069;-76
2023/08/12 04:55:56;;;;;;;25.55;13.68;;;;;;;17.03;59.03;101567.34;4968157;28;20164;-78
2023/08/12 04:58:22;;;;;;;23.00;14.20;;;;;;;17.07;58.55;101566.22;4979076;28;20045;-77
2023/08/12 05:00:48;;;;;;;19.27;12.90;;;;;;;17.08;58.51;101565.28;4967447;28;20021;-78
2023/08/12 05:03:16;;;;;;;15.50;11.23;;;;;;;17.16;58.90;101557.78;4981885;28;20072;-76
2023/08/12 05:05:42;;;;;;;20.52;11.85;;;;;;;17.30;58.85;101559.63;4979142;28;20447;-76
2023/08/12 05:08:07;;;;;;;18.13;12.73;;;;;;;17.42;58.15;101560.69;4982931;28;20034;-76
2023/08/12 05:10:34;;;;;;;20.58;12.55;;;;;;;17.37;58.14;101552.19;4979257;28;21574;-76
2023/08/12 05:13:00;;;;;;;16.98;11.70;;;;;;;17.43;58.28;101555.34;4998965;28;20042;-75
2023/08/12 05:15:26;;;;;;;14.73;9.73;;;;;;;17.61;58.59;101550.78;4960247;28;20135;-76
2023/08/12 05:17:52;;;;;;;19.25;11.82;;;;;;;17.73;58.00;101545.72;4981633;28;20034;-76
2023/08/12 05:20:21;;;;;;;17.02;10.45;;;;;;;17.90;58.26;101542.91;4966228;28;20033;-75
2023/08/12 05:22:47;;;;;;;16.38;11.75;;;;;;;17.95;57.07;101535.53;4981758;28;20042;-76
2023/08/12 05:25:12;;;;;;;12.52;10.35;;;;;;;18.01;57.40;101532.53;4984275;28;20030;-77
2023/08/12 05:27:38;;;;;;;22.83;11.48;;;;;;;18.04;56.78;101529.69;4995732;28;20412;-78
2023/08/12 05:30:05;;;;;;;16.52;9.55;;;;;;;18.22;57.62;101530.38;4969517;28;20043;-77
2023/08/12 05:32:30;;;;;;;15.30;8.75;;;;;;;18.52;56.81;101526.75;4995951;28;20042;-76
2023/08/12 05:34:56;;;;;;;16.85;11.63;;;;;;;18.64;56.15;101523.31;4981023;28;20060;-79
2023/08/12 05:37:22;;;;;;;15.77;10.48;;;;;;;18.68;55.12;101518.69;4994756;28;20571;-78
2023/08/12 05:39:47;;;;;;;19.08;10.30;;;;;;;18.84;54.59;101516.72;4999833;28;20060;-77
2023/08/12 05:42:13;;;;;;;14.48;9.05;;;;;;;19.18;54.27;101519.84;4978627;28;20420;-78
2023/08/12 05:44:42;;;;;;;16.00;9.70;;;;;;;19.69;53.03;101521.75;4989984;28;20144;-76
2023/08/12 05:47:08;;;;;;;11.32;8.55;;;;;;;20.13;52.08;101523.97;4978289;28;20030;-77
2023/08/12 05:49:33;;;;;;;10.85;8.20;;;;;;;20.13;50.78;101521.31;4992200;28;20040;-78
2023/08/12 05:51:59;;;;;;;12.85;9.20;;;;;;;20.27;50.16;101522.19;4958353;28;20022;-77
2023/08/12 05:54:25;;;;;;;11.45;8.43;;;;;;;20.49;49.99;101537.41;4977745;28;20056;-75
2023/08/12 05:56:50;;;;;;;11.70;8.55;;;;;;;20.49;50.08;101527.63;4995064;28;20057;-77
2023/08/12 05:59:15;;;;;;;14.00;9.35;;;;;;;21.14;48.95;101538.88;4974417;28;20042;-78
2023/08/12 06:01:41;;;;;;;11.63;8.02;;;;;;;20.81;47.78;101531.56;4973636;28;20523;-78
2023/08/12 06:04:07;;;;;;;13.25;8.30;;;;;;;20.50;49.49;101529.31;4994913;28;20038;-77
2023/08/12 06:06:35;;;;;;;12.63;7.90;;;;;;;19.65;50.66;101533.53;4974857;28;20037;-77
2023/08/12 06:09:00;;;;;;;11.25;8.48;;;;;;;19.14;52.76;101534.22;4993768;28;20076;-75
2023/08/12 06:11:26;;;;;;;14.13;7.97;;;;;;;18.77;53.85;101528.69;4976954;28;20062;-77
2023/08/12 06:13:53;;;;;;;14.05;7.82;;;;;;;18.70;54.62;101527.38;4992605;28;21766;-75
2023/08/12 06:16:18;;;;;;;13.98;8.80;;;;;;;19.03;54.15;101523.50;4994225;28;20037;-75
2023/08/12 06:18:44;;;;;;;11.98;7.85;;;;;;;19.60;53.00;101517.94;4979408;28;20034;-76
2023/08/12 06:21:10;;;;;;;15.38;7.78;;;;;;;20.01;52.09;101519.50;4995188;28;20144;-78
2023/08/12 06:23:36;;;;;;;11.65;7.45;;;;;;;19.80;52.11;101523.69;4989857;28;20069;-76
2023/08/12 06:26:02;;;;;;;10.15;6.70;;;;;;;19.62;52.46;101512.53;4983356;28;20128;-76
2023/08/12 06:28:27;;;;;;;10.68;7.32;;;;;;;19.63;53.22;101512.41;4960571;28;20052;-77
2023/08/12 06:30:53;;;;;;;7.57;5.18;;;;;;;20.74;53.13;101508.09;4996306;28;20044;-75
2023/08/12 06:33:19;;;;;;;8.57;6.30;;;;;;;22.45;47.02;101510.16;4977776;28;20033;-75
2023/08/12 06:35:45;;;;;;;8.20;5.85;;;;;;;23.30;44.43;101504.09;4990787;28;20736;-76
2023/08/12 06:38:10;;;;;;;9.77;5.05;;;;;;;22.11;45.59;101507.56;4976886;28;20038;-78
2023/08/12 06:40:38;;;;;;;6.70;5.20;;;;;;;21.17;47.88;101512.06;4977319;28;20076;-77
2023/08/12 06:43:04;;;;;;;8.32;5.95;;;;;;;21.14;49.17;101512.31;4977565;28;20503;-76
2023/08/12 06:45:29;;;;;;;9.80;6.68;;;;;;;21.74;47.04;101503.28;4973631;28;20080;-77
2023/08/12 06:47:54;;;;;;;10.13;5.95;;;;;;;23.76;43.94;101492.97;4978848;28;20176;-77
2023/08/12 06:50:22;;;;;;;7.82;5.88;;;;;;;26.18;38.90;101497.69;4974190;28;20416;-77
2023/08/12 06:52:47;;;;;;;9.45;5.30;;;;;;;28.46;35.27;101486.09;4975219;28;20042;-75
2023/08/12 06:55:13;;;;;;;7.63;4.18;;;;;;;27.73;34.35;101479.44;4983458;28;20032;-77
2023/08/12 06:57:38;;;;;;;7.07;5.63;;;;;;;25.16;38.64;101490.38;4990031;28;20046;-77
2023/08/12 07:00:05;;;;;;;7.28;5.60;;;;;;;24.25;40.48;101487.84;4994219;28;20092;-76
2023/08/12 07:02:30;;;;;;;5.20;4.00;;;;;;;24.15;42.35;101479.84;4975427;28;20148;-76
2023/08/12 07:04:56;;;;;;;9.50;4.15;;;;;;;24.86;40.92;101481.47;4997274;28;20117;-76
2023/08/12 07:07:22;;;;;;;9.90;5.15;;;;;;;25.29;39.35;101480.22;4959924;28;20104;-76
2023/08/12 07:09:48;;;;;;;11.68;4.68;;;;;;;24.84;40.90;101467.44;4981760;28;20121;-78
2023/08/12 07:12:13;;;;;;;9.45;5.07;;;;;;;25.76;37.88;101474.88;4984072;28;20069;-75
2023/08/12 07:14:39;;;;;;;7.55;5.50;;;;;;;27.14;36.41;101470.31;4996625;28;20038;-76
2023/08/12 07:17:04;;;;;;;6.68;4.40;;;;;;;27.10;36.00;101465.28;4979076;28;20026;-76
2023/08/12 07:19:30;;;;;;;8.98;4.50;;;;;;;26.73;37.22;101467.28;4983506;28;20033;-76
2023/08/12 07:21:56;;;;;;;6.78;3.88;;;;;;;26.92;36.29;101461.78;4980353;28;20092;-78
2023/08/12 07:24:21;;;;;;;10.82;4.50;;;;;;;26.42;36.95;101448.88;4982347;28;20029;-76
2023/08/12 07:26:47;;;;;;;5.53;4.38;;;;;;;26.73;37.06;101444.00;4972292;28;20648;-75
2023/08/12 07:29:17;;;;;;;6.95;3.40;;;;;;;26.58;36.68;101450.88;4996621;28;20166;-76
2023/08/12 07:31:46;;;;;;;6.50;3.37;;;;;;;25.90;38.75;101456.66;4978419;28;20135;-77
2023/08/12 07:34:13;;;;;;;7.18;4.15;;;;;;;25.12;39.51;101460.38;4963400;28;20285;-78
2023/08/12 07:36:40;;;;;;;5.72;3.88;;;;;;;24.45;41.48;101462.06;4995627;28;20033;-78
2023/08/12 07:39:06;;;;;;;5.00;3.83;;;;;;;24.07;41.31;101450.28;4985113;28;20121;-79
2023/08/12 07:41:32;;;;;;;9.05;4.47;;;;;;;23.94;42.94;101465.69;4974154;28;20061;-78
2023/08/12 07:43:57;;;;;;;4.75;3.40;;;;;;;23.95;41.99;101462.06;4984196;28;20065;-77
2023/08/12 07:46:23;;;;;;;5.47;3.30;;;;;;;24.19;42.02;101467.03;5004001;28;20072;-78
2023/08/12 07:48:48;;;;;;;7.55;3.13;;;;;;;24.70;42.08;101465.16;4988557;28;20038;-78
2023/08/12 07:51:17;;;;;;;6.75;3.90;;;;;;;24.83;41.12;101468.41;4991278;28;20109;-79
2023/08/12 07:53:42;;;;;;;6.88;3.35;;;;;;;25.28;39.32;101465.13;4965963;28;20096;-78
2023/08/12 07:56:08;;;;;;;6.47;3.50;;;;;;;25.62;38.75;101465.50;4971584;28;20033;-79
2023/08/12 07:58:34;;;;;;;10.60;3.45;;;;;;;25.77;38.10;101455.16;4972361;28;21698;-77
2023/08/12 08:00:59;;;;;;;4.88;3.70;;;;;;;24.76;40.07;101461.94;4988470;28;20037;-77
2023/08/12 08:03:25;;;;;;;6.03;3.40;;;;;;;24.14;42.27;101469.28;4986457;28;20620;-79
2023/08/12 08:05:50;;;;;;;5.82;3.72;;;;;;;23.20;43.92;101464.84;4990636;28;20434;-78
2023/08/12 08:08:16;;;;;;;6.20;3.72;;;;;;;23.27;44.01;101470.53;4982551;28;20046;-77
2023/08/12 08:10:41;;;;;;;5.57;3.45;;;;;;;23.13;44.17;101469.00;4970578;28;20038;-76
2023/08/12 08:13:07;;;;;;;7.18;3.72;;;;;;;22.95;44.64;101468.75;4997195;28;20058;-78
2023/08/12 08:15:32;;;;;;;7.18;4.10;;;;;;;22.68;45.44;101471.00;4984929;28;20040;-78
2023/08/12 08:18:02;;;;;;;8.40;4.03;;;;;;;22.48;45.69;101465.50;4980758;28;20052;-77
2023/08/12 08:20:27;;;;;;;5.47;3.25;;;;;;;22.90;44.97;101462.13;4983242;28;21175;-77
2023/08/12 08:22:55;;;;;;;5.95;2.67;;;;;;;22.90;45.46;101467.44;4966715;28;20508;-77
2023/08/12 08:25:21;;;;;;;4.63;3.25;;;;;;;22.97;45.14;101468.63;4979138;28;20025;-76
2023/08/12 08:27:47;;;;;;;5.30;3.70;;;;;;;22.81;45.22;101458.41;4982419;28;20049;-76
2023/08/12 08:30:13;;;;;;;6.07;3.35;;;;;;;22.62;45.14;101458.19;4966802;28;20033;-77
2023/08/12 08:32:38;;;;;;;5.72;2.95;;;;;;;22.55;44.84;101452.53;4978651;28;20100;-79
2023/08/12 08:35:04;;;;;;;6.35;4.13;;;;;;;22.29;45.46;101452.84;4971946;28;20038;-77
2023/08/12 08:37:30;;;;;;;3.38;2.05;;;;;;;22.48;45.24;101443.34;4965522;28;20052;-76
2023/08/12 08:39:55;;;;;;;3.33;1.80;;;;;;;22.56;45.88;101439.09;4997969;28;20033;-77
2023/08/12 08:42:23;;;;;;;4.38;1.90;;;;;;;22.45;45.01;101439.13;4977700;28;20049;-74
2023/08/12 08:44:52;;;;;;;4.22;2.45;;;;;;;22.37;45.15;101426.41;4995021;28;20447;-76
2023/08/12 08:47:23;;;;;;;3.88;1.88;;;;;;;22.41;45.66;101435.03;4993606;28;20056;-75
2023/08/12 08:49:49;;;;;;;5.38;1.85;;;;;;;22.53;45.46;101434.00;4990470;28;20037;-75
2023/08/12 08:52:15;;;;;;;4.25;1.77;;;;;;;22.70;45.01;101439.78;4981106;28;20045;-78
2023/08/12 08:54:41;;;;;;;4.75;1.80;;;;;;;22.69;45.22;101430.09;4993301;28;20084;-76
2023/08/12 08:57:06;;;;;;;9.00;1.58;;;;;;;22.53;44.83;101419.84;4981307;28;20041;-76
2023/08/12 08:59:32;;;;;;;2.72;1.27;;;;;;;22.24;45.42;101423.06;4985916;28;20287;-76
2023/08/12 09:01:58;;;;;;;4.35;1.95;;;;;;;22.20;46.43;101418.13;4981354;28;20517;-76
2023/08/12 09:04:27;;;;;;;4.65;1.70;;;;;;;21.94;46.87;101423.72;4977403;28;20038;-76
2023/08/12 09:06:53;;;;;;;5.28;2.10;;;;;;;21.75;46.54;101419.84;4974945;28;20677;-75
2023/08/12 09:09:20;;;;;;;3.97;2.35;;;;;;;21.58;47.97;101414.16;4987479;28;20508;-75
2023/08/12 09:11:47;;;;;;;3.50;1.92;;;;;;;21.69;48.07;101412.38;4974061;28;20867;-77
2023/08/12 09:14:13;;;;;;;2.80;1.55;;;;;;;21.56;48.32;101411.63;4995368;28;20053;-76
2023/08/12 09:16:42;;;;;;;4.03;2.42;;;;;;;21.23;48.10;101415.91;4977043;28;20514;-76
2023/08/12 09:19:10;;;;;;;2.45;1.70;;;;;;;21.30;48.85;101409.16;4981252;28;20041;-76
2023/08/12 09:21:35;;;;;;;1.48;1.15;;;;;;;21.27;49.18;101414.72;4980717;28;20096;-76
2023/08/12 09:24:04;;;;;;;4.72;1.90;;;;;;;21.24;49.02;101417.59;4973408;28;20080;-77
2023/08/12 09:26:30;;;;;;;6.35;1.77;;;;;;;21.10;49.39;101429.28;4975817;28;20034;-76
2023/08/12 09:28:55;;;;;;;4.80;1.70;;;;;;;21.04;50.15;101423.59;4973388;28;20041;-75
2023/08/12 09:31:29;;;;;;;3.15;1.58;;;;;;;20.87;50.33;101423.06;4992178;28;20033;-75
2023/08/12 09:34:03;;;;;;;3.25;2.15;;;;;;;20.69;50.24;101425.25;4980103;28;20948;-77
2023/08/12 09:36:30;;;;;;;5.40;2.53;;;;;;;20.56;51.03;101426.28;4981802;28;20045;-76
2023/08/12 09:38:57;;;;;;;6.30;2.65;;;;;;;20.51;51.82;101430.13;4974453;28;20914;-77
2023/08/12 09:41:24;;;;;;;7.35;2.35;;;;;;;20.41;52.00;101428.25;4979002;28;20041;-77
2023/08/12 09:43:51;;;;;;;8.50;3.95;;;;;;;20.17;52.47;101431.69;4981955;28;20072;-77
2023/08/12 09:46:17;;;;;;;7.32;3.13;;;;;;;20.07;53.02;101436.00;4962555;28;20061;-76
2023/08/12 09:48:43;;;;;;;5.22;3.78;;;;;;;19.84;54.40;101430.53;4991705;28;20211;-78
2023/08/12 09:51:09;;;;;;;7.22;3.78;;;;;;;19.43;54.78;101441.31;4991495;28;20064;-77
2023/08/12 09:53:34;;;;;;;7.88;4.88;;;;;;;19.14;56.05;101430.91;4976125;28;20049;-77
2023/08/12 09:56:07;;;;;;;9.50;5.88;;;;;;;18.94;56.98;101429.59;4960616;28;20046;-77
2023/08/12 09:58:36;;;;;;;10.18;5.75;;;;;;;18.99;57.25;101421.34;4976608;28;20037;-77
2023/08/12 10:01:04;;;;;;;10.38;4.70;;;;;;;19.05;56.96;101419.13;4979789;28;20038;-76
2023/08/12 10:03:32;;;;;;;7.35;4.65;;;;;;;18.92;57.57;101407.69;4971785;28;20048;-78
2023/08/12 10:06:00;;;;;;;6.90;5.97;;;;;;;19.02;57.74;101410.56;4994240;28;20034;-77
2023/08/12 10:08:27;;;;;;;7.78;6.47;;;;;;;18.86;58.03;101408.91;4981005;28;20532;-78
2023/08/12 10:10:58;;;;;;;9.70;7.03;;;;;;;18.72;58.67;101406.34;4979126;28;20066;-77
2023/08/12 10:13:24;;;;;;;12.23;7.72;;;;;;;18.78;58.57;101402.41;4978222;28;20086;-78
2023/08/12 10:15:50;;;;;;;10.63;7.82;;;;;;;18.85;58.90;101393.97;4993767;28;20110;-76
2023/08/12 10:18:17;;;;;;;11.52;7.90;;;;;;;18.85;59.51;101393.97;4979254;28;20057;-78
2023/08/12 10:20:44;;;;;;;10.32;8.75;;;;;;;19.06;58.82;101396.16;4996974;28;20037;-77
2023/08/12 10:23:15;;;;;;;8.68;7.15;;;;;;;19.21;58.94;101388.94;4979490;28;20093;-78
2023/08/12 10:25:42;;;;;;;;;;;;;;;19.12;58.33;101400.16;4994715;28;20152;-77
2023/08/12 10:28:08;;;;;;;10.23;5.95;;;;;;;19.01;58.34;101395.59;4978227;28;19925;-78
2023/08/12 10:30:34;;;;;;;8.10;5.43;;;;;;;18.79;58.22;101391.72;4991513;28;20520;-77
2023/08/12 10:33:00;;;;;;;4.85;3.78;;;;;;;18.64;58.40;101387.44;4971964;28;20034;-78
2023/08/12 10:35:47;;;;;;;5.82;4.95;;;;;;;18.56;58.44;101377.34;4978096;28;20072;-77
2023/08/12 10:38:20;;;;;;;5.10;4.60;;;;;;;18.50;59.21;101380.44;4972304;28;20038;-77
2023/08/12 10:40:46;;;;;;;6.95;5.72;;;;;;;18.65;58.73;101375.91;4969454;28;20060;-77
2023/08/12 10:43:13;;;;;;;9.85;6.47;;;;;;;18.71;58.97;101369.38;4991253;28;20042;-77
2023/08/12 10:45:52;;;;;;;12.40;7.10;;;;;;;18.77;59.18;101364.50;4991778;28;20029;-77
2023/08/12 10:48:23;;;;;;;9.55;6.70;;;;;;;18.78;59.59;101360.88;4976560;28;20685;-76
2023/08/12 10:50:52;;;;;;;12.60;8.23;;;;;;;18.73;59.55;101363.00;4977702;28;20025;-77
2023/08/12 10:53:32;;;;;;;6.75;3.72;;;;;;;18.21;59.36;101366.44;4973682;28;20061;-76
2023/08/12 10:56:05;;;;;;;3.45;3.15;;;;;;;18.17;59.70;101371.06;4985868;28;20037;-77
2023/08/12 10:58:46;;;;;;;3.58;2.33;;;;;;;18.24;59.02;101368.88;4979330;28;20099;-78
2023/08/12 11:01:18;;;;;;;5.75;2.75;;;;;;;18.14;59.40;101368.63;4981131;28;20802;-80
2023/08/12 11:03:44;;;;;;;5.93;1.92;;;;;;;18.17;59.15;101364.91;4973670;28;20046;-76
2023/08/12 11:06:10;;;;;;;6.45;2.67;;;;;;;18.16;59.42;101364.06;4978856;28;20092;-77
2023/08/12 11:08:36;;;;;;;3.13;2.65;;;;;;;18.14;59.34;101373.03;4989740;28;20713;-77
2023/08/12 11:11:02;;;;;;;6.03;2.55;;;;;;;18.19;59.59;101368.34;4994552;28;20030;-75
2023/08/12 11:13:28;;;;;;;5.32;3.40;;;;;;;18.27;59.51;101377.50;4973253;28;20030;-77